Time,TemperatureF,DewpointF,PressureIn,WindDirection,WindDirectionDegrees,WindSpeedMPH,WindSpeedGustMPH,Humidity,HourlyPrecipIn,Conditions,Clouds,dailyrainin,SolarRadiationWatts/m^2,SoftwareType,DateUTC
2013-12-03 00:02:00,25.0,23.0,-100.00,South,187,4.0,9.0,91,0.00,,,1.22,0.000000,,2013-12-03 08:02:00,
2013-12-03 00:11:00,25.0,23.0,-100.00,South,187,4.0,9.0,91,0.00,,,1.22,0.000000,,2013-12-03 08:11:00,
2013-12-03 00:22:00,25.0,23.0,-100.00,South,187,4.0,9.0,91,0.00,,,1.22,0.000000,,2013-12-03 08:22:00,
2013-12-03 00:31:00,24.0,22.0,-100.00,South,178,1.0,6.0,91,0.00,,,1.02,0.000000,,2013-12-03 08:31:00,
2013-12-03 00:53:00,24.0,22.0,-100.00,South,178,1.0,6.0,91,0.00,,,1.02,0.000000,,2013-12-03 08:53:00,
2013-12-03 01:01:00,24.0,22.0,-100.00,South,178,1.0,6.0,91,0.00,,,1.02,0.000000,,2013-12-03 09:01:00,
2013-12-03 01:11:00,24.0,22.0,-100.00,South,178,1.0,6.0,91,0.00,,,1.02,0.000000,,2013-12-03 09:11:00,
2013-12-03 01:21:00,24.0,22.0,-100.00,South,178,1.0,6.0,91,0.00,,,1.02,0.000000,,2013-12-03 09:21:00,
2013-12-03 01:31:00,22.0,20.0,-100.00,North,354,1.0,5.0,92,0.00,,,0.78,0.000000,,2013-12-03 09:31:00,
2013-12-03 01:54:00,22.0,20.0,-100.00,North,354,1.0,5.0,92,0.00,,,0.78,0.000000,,2013-12-03 09:54:00,
2013-12-03 02:03:00,22.0,20.0,-100.00,North,354,1.0,5.0,92,0.00,,,0.78,0.000000,,2013-12-03 10:03:00,
2013-12-03 02:13:00,22.0,20.0,-100.00,North,354,1.0,5.0,92,0.00,,,0.78,0.000000,,2013-12-03 10:13:00,
2013-12-03 02:23:00,22.0,20.0,-100.00,North,354,1.0,5.0,92,0.00,,,0.78,0.000000,,2013-12-03 10:23:00,
2013-12-03 02:31:00,23.0,21.0,-100.00,North,5,3.0,5.0,90,0.00,,,0.59,0.000000,,2013-12-03 10:31:00,
2013-12-03 02:53:00,23.0,21.0,-100.00,North,5,3.0,5.0,90,0.00,,,0.59,0.000000,,2013-12-03 10:53:00,
2013-12-03 03:03:00,23.0,21.0,-100.00,North,5,3.0,5.0,90,0.00,,,0.59,0.000000,,2013-12-03 11:03:00,
2013-12-03 03:11:00,23.0,21.0,-100.00,North,5,3.0,5.0,90,0.00,,,0.59,0.000000,,2013-12-03 11:11:00,
2013-12-03 03:22:00,23.0,21.0,-100.00,North,5,3.0,5.0,90,0.00,,,0.59,0.000000,,2013-12-03 11:22:00,
2013-12-03 03:31:00,22.0,19.0,-100.00,West,260,2.0,3.0,88,0.00,,,0.39,0.000000,,2013-12-03 11:31:00,
2013-12-03 03:52:00,22.0,19.0,-100.00,West,260,2.0,3.0,88,0.00,,,0.39,0.000000,,2013-12-03 11:52:00,
2013-12-03 04:02:00,22.0,19.0,-100.00,West,260,2.0,3.0,88,0.00,,,0.39,0.000000,,2013-12-03 12:02:00,
2013-12-03 04:11:00,22.0,19.0,-100.00,West,260,2.0,3.0,88,0.00,,,0.39,0.000000,,2013-12-03 12:11:00,
2013-12-03 04:21:00,22.0,19.0,-100.00,West,260,2.0,3.0,88,0.00,,,0.39,0.000000,,2013-12-03 12:21:00,
2013-12-03 04:31:00,22.0,19.0,-100.00,NNE,22,1.0,3.0,89,0.00,,,0.20,0.000000,,2013-12-03 12:31:00,
2013-12-03 04:52:00,22.0,19.0,-100.00,NNE,22,1.0,3.0,89,0.00,,,0.20,0.000000,,2013-12-03 12:52:00,
2013-12-03 05:02:00,22.0,19.0,-100.00,NNE,22,1.0,3.0,89,0.00,,,0.20,0.000000,,2013-12-03 13:02:00,
2013-12-03 05:11:00,22.0,19.0,-100.00,NNE,22,1.0,3.0,89,0.00,,,0.20,0.000000,,2013-12-03 13:11:00,
2013-12-03 05:21:00,22.0,19.0,-100.00,NNE,22,1.0,3.0,89,0.00,,,0.20,0.000000,,2013-12-03 13:21:00,
2013-12-03 05:31:00,22.0,20.0,-100.00,NNE,16,1.0,3.0,91,0.00,,,-99.99,0.000000,,2013-12-03 13:31:00,
2013-12-03 05:52:00,22.0,20.0,-100.00,NNE,16,1.0,3.0,91,0.00,,,-99.99,0.000000,,2013-12-03 13:52:00,
2013-12-03 06:02:00,22.0,20.0,-100.00,NNE,16,1.0,3.0,91,0.00,,,-99.99,0.000000,,2013-12-03 14:02:00,
2013-12-03 06:11:00,22.0,20.0,-100.00,NNE,16,1.0,3.0,91,0.00,,,-99.99,0.000000,,2013-12-03 14:11:00,
2013-12-03 06:22:00,22.0,20.0,-100.00,NNE,16,1.0,3.0,91,0.00,,,-99.99,0.000000,,2013-12-03 14:22:00,
2013-12-03 06:31:00,22.0,20.0,-100.00,NW,306,2.0,3.0,91,0.00,,,0.02,0.000000,,2013-12-03 14:31:00,
2013-12-03 06:52:00,22.0,20.0,-100.00,NW,306,2.0,3.0,91,0.00,,,0.02,0.000000,,2013-12-03 14:52:00,
2013-12-03 07:02:00,22.0,20.0,-100.00,NW,306,2.0,3.0,91,0.00,,,0.02,0.000000,,2013-12-03 15:02:00,
2013-12-03 07:11:00,22.0,20.0,-100.00,NW,306,2.0,3.0,91,0.00,,,0.02,0.000000,,2013-12-03 15:11:00,
2013-12-03 07:21:00,22.0,20.0,-100.00,NW,306,2.0,3.0,91,0.00,,,0.02,0.000000,,2013-12-03 15:21:00,
2013-12-03 07:31:00,23.0,21.0,-100.00,North,349,2.0,4.0,91,0.00,,,-99.99,0.000000,,2013-12-03 15:31:00,
2013-12-03 08:13:00,23.0,21.0,-100.00,North,349,2.0,4.0,91,0.00,,,-99.99,0.000000,,2013-12-03 16:13:00,
2013-12-03 08:23:00,23.0,21.0,-100.00,North,349,2.0,4.0,91,0.00,,,-99.99,0.000000,,2013-12-03 16:23:00,
2013-12-03 08:31:00,24.0,22.0,-100.00,NNE,17,2.0,5.0,91,0.00,,,0.00,3.000000,,2013-12-03 16:31:00,
2013-12-03 09:12:00,24.0,22.0,-100.00,NNE,17,2.0,5.0,91,0.00,,,0.00,3.000000,,2013-12-03 17:12:00,
2013-12-03 09:22:00,24.0,22.0,-100.00,NNE,17,2.0,5.0,91,0.00,,,0.00,3.000000,,2013-12-03 17:22:00,
2013-12-03 09:31:00,24.0,22.0,-100.00,North,9,3.0,8.0,90,0.00,,,0.00,10.000000,,2013-12-03 17:31:00,
2013-12-03 09:53:00,24.0,22.0,-100.00,North,9,3.0,8.0,90,0.00,,,0.00,10.000000,,2013-12-03 17:53:00,
2013-12-03 10:02:00,24.0,22.0,-100.00,North,9,3.0,8.0,90,0.00,,,0.00,10.000000,,2013-12-03 18:02:00,
2013-12-03 10:11:00,24.0,22.0,-100.00,North,9,3.0,8.0,90,0.00,,,0.00,10.000000,,2013-12-03 18:11:00,
2013-12-03 10:22:00,24.0,22.0,-100.00,North,9,3.0,8.0,90,0.00,,,0.00,10.000000,,2013-12-03 18:22:00,
2013-12-03 10:31:00,22.0,19.0,-100.00,NNE,14,4.0,11.0,89,0.00,,,0.00,11.000000,,2013-12-03 18:31:00,
2013-12-03 10:53:00,22.0,19.0,-100.00,NNE,14,4.0,11.0,89,0.00,,,0.00,11.000000,,2013-12-03 18:53:00,
2013-12-03 11:02:00,22.0,19.0,-100.00,NNE,14,4.0,11.0,89,0.00,,,0.00,11.000000,,2013-12-03 19:02:00,
2013-12-03 11:11:00,22.0,19.0,-100.00,NNE,14,4.0,11.0,89,0.00,,,0.00,11.000000,,2013-12-03 19:11:00,
2013-12-03 11:21:00,22.0,19.0,-100.00,NNE,14,4.0,11.0,89,0.00,,,0.00,11.000000,,2013-12-03 19:21:00,
2013-12-03 11:31:00,21.0,18.0,-100.00,NE,48,3.0,9.0,89,0.00,,,0.00,8.000000,,2013-12-03 19:31:00,
2013-12-03 11:52:00,21.0,18.0,-100.00,NE,48,3.0,9.0,89,0.00,,,0.00,8.000000,,2013-12-03 19:52:00,
2013-12-03 12:01:00,21.0,18.0,-100.00,NE,48,3.0,9.0,89,0.00,,,0.00,8.000000,,2013-12-03 20:01:00,
2013-12-03 12:11:00,21.0,18.0,-100.00,NE,48,3.0,9.0,89,0.00,,,0.00,8.000000,,2013-12-03 20:11:00,
2013-12-03 12:22:00,21.0,18.0,-100.00,NE,48,3.0,9.0,89,0.00,,,0.00,8.000000,,2013-12-03 20:22:00,
2013-12-03 12:31:00,23.0,19.0,-100.00,NNE,27,3.0,7.0,86,0.00,,,0.00,26.000000,,2013-12-03 20:31:00,
2013-12-03 12:53:00,23.0,19.0,-100.00,NNE,27,3.0,7.0,86,0.00,,,0.00,26.000000,,2013-12-03 20:53:00,
2013-12-03 13:02:00,23.0,19.0,-100.00,NNE,27,3.0,7.0,86,0.00,,,0.00,26.000000,,2013-12-03 21:02:00,
2013-12-03 13:11:00,23.0,19.0,-100.00,NNE,27,3.0,7.0,86,0.00,,,0.00,26.000000,,2013-12-03 21:11:00,
2013-12-03 13:21:00,23.0,19.0,-100.00,NNE,27,3.0,7.0,86,0.00,,,0.00,26.000000,,2013-12-03 21:21:00,
2013-12-03 13:31:00,26.0,18.0,-100.00,NNE,19,3.0,8.0,70,0.01,,,0.01,83.000000,,2013-12-03 21:31:00,
2013-12-03 14:13:00,26.0,18.0,-100.00,NNE,19,3.0,8.0,70,0.01,,,0.01,83.000000,,2013-12-03 22:13:00,
2013-12-03 14:23:00,26.0,18.0,-100.00,NNE,19,3.0,8.0,70,0.01,,,0.01,83.000000,,2013-12-03 22:23:00,
2013-12-03 14:31:00,23.0,14.0,-100.00,North,4,3.0,10.0,68,0.03,,,0.04,63.000000,,2013-12-03 22:31:00,
2013-12-03 14:53:00,23.0,14.0,-100.00,North,4,3.0,10.0,68,0.03,,,0.04,63.000000,,2013-12-03 22:53:00,
2013-12-03 15:02:00,23.0,14.0,-100.00,North,4,3.0,10.0,68,0.03,,,0.04,63.000000,,2013-12-03 23:02:00,
2013-12-03 15:12:00,23.0,14.0,-100.00,North,4,3.0,10.0,68,0.03,,,0.04,63.000000,,2013-12-03 23:12:00,
2013-12-03 15:22:00,23.0,14.0,-100.00,North,4,3.0,10.0,68,0.03,,,0.04,63.000000,,2013-12-03 23:22:00,
2013-12-03 15:31:00,20.0,12.0,-100.00,NNE,30,3.0,10.0,72,0.00,,,0.04,18.000000,,2013-12-03 23:31:00,
2013-12-03 15:52:00,20.0,12.0,-100.00,NNE,30,3.0,10.0,72,0.00,,,0.04,18.000000,,2013-12-03 23:52:00,
2013-12-03 16:02:00,20.0,12.0,-100.00,NNE,30,3.0,10.0,72,0.00,,,0.04,18.000000,,2013-12-04 00:02:00,
2013-12-03 16:11:00,20.0,12.0,-100.00,NNE,30,3.0,10.0,72,0.00,,,0.04,18.000000,,2013-12-04 00:11:00,
2013-12-03 16:22:00,20.0,12.0,-100.00,NNE,30,3.0,10.0,72,0.00,,,0.04,18.000000,,2013-12-04 00:22:00,
2013-12-03 16:31:00,19.0,14.0,-100.00,NNW,338,2.0,9.0,81,0.00,,,0.04,5.000000,,2013-12-04 00:31:00,
2013-12-03 16:52:00,19.0,14.0,-100.00,NNW,338,2.0,9.0,81,0.00,,,0.04,5.000000,,2013-12-04 00:52:00,
2013-12-03 17:02:00,19.0,14.0,-100.00,NNW,338,2.0,9.0,81,0.00,,,0.04,5.000000,,2013-12-04 01:02:00,
2013-12-03 17:11:00,19.0,14.0,-100.00,NNW,338,2.0,9.0,81,0.00,,,0.04,5.000000,,2013-12-04 01:11:00,
2013-12-03 17:21:00,19.0,14.0,-100.00,NNW,338,2.0,9.0,81,0.00,,,0.04,5.000000,,2013-12-04 01:21:00,
2013-12-03 17:31:00,17.0,12.0,-100.00,NNW,332,2.0,5.0,80,0.00,,,0.04,0.000000,,2013-12-04 01:31:00,
2013-12-03 17:52:00,17.0,12.0,-100.00,NNW,332,2.0,5.0,80,0.00,,,0.04,0.000000,,2013-12-04 01:52:00,
2013-12-03 18:02:00,17.0,12.0,-100.00,NNW,332,2.0,5.0,80,0.00,,,0.04,0.000000,,2013-12-04 02:02:00,
2013-12-03 18:11:00,17.0,12.0,-100.00,NNW,332,2.0,5.0,80,0.00,,,0.04,0.000000,,2013-12-04 02:11:00,
2013-12-03 18:21:00,17.0,12.0,-100.00,NNW,332,2.0,5.0,80,0.00,,,0.04,0.000000,,2013-12-04 02:21:00,
2013-12-03 18:31:00,13.0,8.0,-100.00,WNW,296,2.0,5.0,81,0.00,,,0.04,0.000000,,2013-12-04 02:31:00,
2013-12-03 18:52:00,13.0,8.0,-100.00,WNW,296,2.0,5.0,81,0.00,,,0.04,0.000000,,2013-12-04 02:52:00,
2013-12-03 19:02:00,13.0,8.0,-100.00,WNW,296,2.0,5.0,81,0.00,,,0.04,0.000000,,2013-12-04 03:02:00,
2013-12-03 19:11:00,13.0,8.0,-100.00,WNW,296,2.0,5.0,81,0.00,,,0.04,0.000000,,2013-12-04 03:11:00,
2013-12-03 19:21:00,13.0,8.0,-100.00,WNW,296,2.0,5.0,81,0.00,,,0.04,0.000000,,2013-12-04 03:21:00,
2013-12-03 19:31:00,11.0,8.0,-100.00,NNW,339,2.0,4.0,86,0.00,,,0.04,0.000000,,2013-12-04 03:31:00,
2013-12-03 19:54:00,11.0,8.0,-100.00,NNW,339,2.0,4.0,86,0.00,,,0.04,0.000000,,2013-12-04 03:54:00,
2013-12-03 20:03:00,11.0,8.0,-100.00,NNW,339,2.0,4.0,86,0.00,,,0.04,0.000000,,2013-12-04 04:03:00,
2013-12-03 20:13:00,11.0,8.0,-100.00,NNW,339,2.0,4.0,86,0.00,,,0.04,0.000000,,2013-12-04 04:13:00,
2013-12-03 20:23:00,11.0,8.0,-100.00,NNW,339,2.0,4.0,86,0.00,,,0.04,0.000000,,2013-12-04 04:23:00,
2013-12-03 20:31:00,11.0,7.0,-100.00,West,259,2.0,5.0,82,0.00,,,0.04,0.000000,,2013-12-04 04:31:00,
2013-12-03 20:52:00,11.0,7.0,-100.00,West,259,2.0,5.0,82,0.00,,,0.04,0.000000,,2013-12-04 04:52:00,
2013-12-03 21:02:00,11.0,7.0,-100.00,West,259,2.0,5.0,82,0.00,,,0.04,0.000000,,2013-12-04 05:02:00,
2013-12-03 21:12:00,11.0,7.0,-100.00,West,259,2.0,5.0,82,0.00,,,0.04,0.000000,,2013-12-04 05:12:00,
2013-12-03 21:22:00,11.0,7.0,-100.00,West,259,2.0,5.0,82,0.00,,,0.04,0.000000,,2013-12-04 05:22:00,
2013-12-03 21:31:00,13.0,6.0,-100.00,NNW,339,2.0,4.0,74,0.00,,,0.04,0.000000,,2013-12-04 05:31:00,
2013-12-03 21:53:00,13.0,6.0,-100.00,NNW,339,2.0,4.0,74,0.00,,,0.04,0.000000,,2013-12-04 05:53:00,
2013-12-03 22:02:00,13.0,6.0,-100.00,NNW,339,2.0,4.0,74,0.00,,,0.04,0.000000,,2013-12-04 06:02:00,
2013-12-03 22:12:00,13.0,6.0,-100.00,NNW,339,2.0,4.0,74,0.00,,,0.04,0.000000,,2013-12-04 06:12:00,
2013-12-03 22:22:00,13.0,6.0,-100.00,NNW,339,2.0,4.0,74,0.00,,,0.04,0.000000,,2013-12-04 06:22:00,
2013-12-03 22:31:00,12.0,4.0,-100.00,South,175,0.0,2.0,71,0.00,,,0.04,0.000000,,2013-12-04 06:31:00,
2013-12-03 22:52:00,12.0,4.0,-100.00,South,175,0.0,2.0,71,0.00,,,0.04,0.000000,,2013-12-04 06:52:00,
2013-12-03 23:02:00,12.0,4.0,-100.00,South,175,0.0,2.0,71,0.00,,,0.04,0.000000,,2013-12-04 07:02:00,
2013-12-03 23:12:00,12.0,4.0,-100.00,South,175,0.0,2.0,71,0.00,,,0.04,0.000000,,2013-12-04 07:12:00,
2013-12-03 23:21:00,12.0,4.0,-100.00,South,175,0.0,2.0,71,0.00,,,0.04,0.000000,,2013-12-04 07:21:00,
2013-12-03 23:31:00,12.0,4.0,-100.00,SE,128,1.0,2.0,69,0.00,,,0.04,0.000000,,2013-12-04 07:31:00,
2013-12-03 23:52:00,12.0,4.0,-100.00,SE,128,1.0,2.0,69,0.00,,,0.04,0.000000,,2013-12-04 07:52:00,